Time;durP1;ratioP1;P1;durP2;ratioP2;P2;SDS_P1;SDS_P2;PMS_P1;PMS_P2;Temp;Humidity;BMP_temperature;BMP_pressure;BME280_temperature;BME280_humidity;BME280_pressure;Samples;Min_cycle;Max_cycle;Signal;HPM_P1;HPM_P2
2022/10/03 00:00:10;;;;;;;8.93;6.00;;;;;;;13.94;88.80;100352.72;340837;28;1860;-68
2022/10/03 00:00:22;;;;;;;8.23;5.90;;;;;;;13.87;88.65;100356.47;341099;28;1809;-68
2022/10/03 00:00:39;;;;;;;8.38;6.20;;;;;;;13.78;89.07;100348.94;342389;28;1082;-68
2022/10/03 00:01:16;;;;;;;8.38;6.30;;;;;;;13.80;89.42;100357.56;342121;28;1878;-69
2022/10/03 00:01:34;;;;;;;10.45;6.15;;;;;;;13.91;89.45;100349.38;341695;28;1341;-68
2022/10/03 00:01:46;;;;;;;10.45;6.18;;;;;;;13.93;89.32;100352.78;342247;28;1329;-68
2022/10/03 00:02:12;;;;;;;10.18;6.25;;;;;;;13.89;89.18;100351.19;342587;28;1273;-68
2022/10/03 00:03:17;;;;;;;9.55;6.47;;;;;;;13.90;89.20;100355.50;341986;28;1371;-68
2022/10/03 00:03:36;;;;;;;10.63;6.40;;;;;;;13.95;89.06;100357.03;340197;29;1374;-68
2022/10/03 00:04:03;;;;;;;8.88;5.90;;;;;;;14.02;89.06;100352.44;340363;29;1009;-68
2022/10/03 00:04:53;;;;;;;11.38;6.50;;;;;;;14.07;88.96;100355.75;339143;29;1364;-67
2022/10/03 00:05:27;;;;;;;8.77;5.97;;;;;;;14.13;88.97;100358.16;338266;29;1844;-68
2022/10/03 00:06:01;;;;;;;10.15;6.10;;;;;;;14.12;88.63;100355.59;341073;28;1255;-69
2022/10/03 00:06:21;;;;;;;9.38;6.30;;;;;;;14.09;88.59;100358.31;341373;28;1685;-68
2022/10/03 00:06:47;;;;;;;10.47;6.00;;;;;;;14.05;88.67;100364.56;342222;28;1291;-68
2022/10/03 00:07:16;;;;;;;9.30;6.05;;;;;;;14.05;88.85;100357.56;342287;28;1209;-68
2022/10/03 00:07:53;;;;;;;9.98;6.28;;;;;;;13.92;88.50;100357.16;341778;28;1079;-68
2022/10/03 00:08:39;;;;;;;9.93;6.10;;;;;;;13.93;88.71;100358.84;342198;28;1704;-67
2022/10/03 00:09:17;;;;;;;8.77;6.47;;;;;;;14.04;88.79;100349.78;341490;28;1523;-67
2022/10/03 00:09:51;;;;;;;10.50;6.30;;;;;;;14.11;88.55;100359.13;342187;28;1233;-68
2022/10/03 00:10:25;;;;;;;8.52;6.10;;;;;;;14.22;88.21;100349.09;341254;28;1087;-69
2022/10/03 00:10:55;;;;;;;9.45;6.30;;;;;;;14.28;88.15;100356.72;341546;28;1071;-68
2022/10/03 00:11:10;;;;;;;9.07;5.90;;;;;;;14.33;87.89;100348.72;340979;28;1973;-68
2022/10/03 00:11:50;;;;;;;8.93;6.00;;;;;;;14.33;87.73;100346.97;341623;28;1480;-68
2022/10/03 00:12:13;;;;;;;8.90;6.25;;;;;;;14.26;88.01;100350.69;341209;28;1277;-69
2022/10/03 00:12:53;;;;;;;11.30;6.80;;;;;;;14.28;87.74;100354.09;342147;28;1736;-68
2022/10/03 00:13:31;;;;;;;10.80;6.47;;;;;;;14.29;87.25;100341.91;341492;28;1625;-68
2022/10/03 00:13:59;;;;;;;9.52;6.65;;;;;;;14.27;87.12;100352.41;341066;28;1100;-68
2022/10/03 00:14:13;;;;;;;11.02;6.95;;;;;;;14.26;87.13;100345.47;341324;28;1723;-68
2022/10/03 00:14:40;;;;;;;10.55;6.95;;;;;;;14.20;86.93;100348.31;342064;28;1417;-68
2022/10/03 00:15:00;;;;;;;11.50;7.05;;;;;;;14.20;87.20;100356.16;340914;28;1088;-68
2022/10/03 00:15:22;;;;;;;10.63;6.53;;;;;;;14.22;87.14;100351.72;340967;28;1851;-69
2022/10/03 00:15:41;;;;;;;9.85;6.20;;;;;;;14.24;87.14;100347.28;341270;28;1071;-69
2022/10/03 00:16:22;;;;;;;10.60;6.72;;;;;;;14.23;87.25;100353.44;340892;28;1627;-69
2022/10/03 00:17:00;;;;;;;10.52;6.68;;;;;;;14.25;87.02;100358.63;342127;28;1516;-69
2022/10/03 00:17:22;;;;;;;9.77;6.38;;;;;;;14.22;86.99;100354.34;341735;28;1673;-69
2022/10/03 00:17:48;;;;;;;10.60;6.50;;;;;;;14.22;87.06;100349.09;342534;28;1186;-69
2022/10/03 00:18:20;;;;;;;11.15;7.10;;;;;;;14.11;87.25;100356.50;343348;28;1301;-68
2022/10/03 00:18:35;;;;;;;11.20;6.70;;;;;;;14.13;87.31;100362.53;343091;28;1180;-68
2022/10/03 00:19:07;;;;;;;10.98;6.95;;;;;;;14.14;87.23;100361.59;343053;28;1939;-68
2022/10/03 00:19:31;;;;;;;10.55;6.65;;;;;;;14.03;87.38;100364.63;341906;28;1263;-68
2022/10/03 00:19:52;;;;;;;10.73;6.50;;;;;;;14.03;87.52;100369.00;342199;28;1080;-68
2022/10/03 00:20:04;;;;;;;9.52;6.63;;;;;;;14.04;87.57;100363.69;340957;28;1484;-68
2022/10/03 00:20:38;;;;;;;9.13;6.55;;;;;;;14.06;87.42;100368.88;341913;28;1472;-68
2022/10/03 00:21:16;;;;;;;10.52;7.03;;;;;;;14.08;87.52;100367.06;341122;28;1327;-67
2022/10/03 00:21:43;;;;;;;9.60;6.63;;;;;;;14.11;87.55;100367.81;341381;28;1820;-68
2022/10/03 00:22:01;;;;;;;10.95;6.68;;;;;;;14.17;87.32;100367.59;342961;28;1177;-68
2022/10/03 00:22:24;;;;;;;11.25;6.72;;;;;;;14.15;87.42;100368.56;342709;28;2092;-68
2022/10/03 00:22:48;;;;;;;10.95;6.80;;;;;;;14.11;87.72;100367.81;341793;28;1044;-68
2022/10/03 00:23:09;;;;;;;10.48;6.57;;;;;;;14.13;87.61;100375.59;343281;28;1035;-68
2022/10/03 00:23:36;;;;;;;12.27;6.88;;;;;;;14.17;87.42;100371.97;342637;28;1498;-68
2022/10/03 00:24:00;;;;;;;8.90;6.50;;;;;;;14.19;87.25;100372.78;342089;28;1058;-68
2022/10/03 00:24:33;;;;;;;10.40;6.63;;;;;;;14.24;87.26;100377.81;340881;28;1890;-68
2022/10/03 00:25:01;;;;;;;9.45;6.68;;;;;;;14.26;87.01;100371.63;340691;28;1102;-68
2022/10/03 00:25:21;;;;;;;9.40;6.35;;;;;;;14.25;87.17;100367.31;341063;28;1693;-68
2022/10/03 00:25:42;;;;;;;9.55;6.65;;;;;;;14.26;87.07;100371.63;341627;28;1610;-68
2022/10/03 00:26:29;;;;;;;10.38;6.80;;;;;;;14.23;87.07;100369.13;340726;29;1093;-68
2022/10/03 00:27:08;;;;;;;10.48;6.70;;;;;;;14.05;86.85;100375.03;339606;29;1695;-68
2022/10/03 00:27:40;;;;;;;9.65;6.95;;;;;;;14.14;87.19;100372.06;336124;29;1861;-68
2022/10/03 00:28:16;;;;;;;10.57;6.72;;;;;;;14.18;87.08;100376.28;340722;29;1301;-68
2022/10/03 00:28:56;;;;;;;10.75;7.03;;;;;;;14.18;87.15;100368.44;341161;28;2533;-68
2022/10/03 00:29:34;;;;;;;10.40;6.40;;;;;;;14.18;86.98;100377.16;340994;28;1712;-68
2022/10/03 00:29:54;;;;;;;11.38;6.63;;;;;;;14.06;87.48;100382.78;341014;28;1154;-68
2022/10/03 00:30:15;;;;;;;10.90;6.72;;;;;;;14.06;87.48;100380.19;341721;28;2057;-68
2022/10/03 00:30:45;;;;;;;11.27;6.97;;;;;;;14.11;87.66;100374.81;342641;28;1077;-68
2022/10/03 00:30:59;;;;;;;10.73;6.53;;;;;;;14.05;87.80;100377.63;343166;28;2076;-68
2022/10/03 00:31:16;;;;;;;11.68;6.72;;;;;;;14.08;87.63;100382.75;342775;28;1911;-68
2022/10/03 00:32:29;;;;;;;10.63;6.60;;;;;;;14.07;87.88;100379.28;343059;28;1157;-68
2022/10/03 00:33:12;;;;;;;11.07;6.78;;;;;;;14.03;87.65;100384.69;338093;29;1215;-68
2022/10/03 00:33:51;;;;;;;9.85;6.55;;;;;;;13.87;87.69;100382.59;337159;29;1590;-68
2022/10/03 00:34:12;;;;;;;10.73;6.47;;;;;;;13.87;87.85;100382.59;336828;29;1106;-68
2022/10/03 00:34:43;;;;;;;9.95;6.32;;;;;;;13.88;88.05;100381.66;337826;29;2684;-68
2022/10/03 00:35:22;;;;;;;10.50;6.68;;;;;;;13.88;87.88;100384.28;338038;29;1122;-68
2022/10/03 00:36:06;;;;;;;10.82;6.72;;;;;;;13.93;87.94;100387.59;336961;29;1106;-68
2022/10/03 00:36:37;;;;;;;11.77;6.70;;;;;;;13.97;87.45;100385.75;338014;29;1340;-68
2022/10/03 00:37:13;;;;;;;10.55;6.45;;;;;;;14.03;87.47;100384.69;338063;29;1039;-67
2022/10/03 00:37:40;;;;;;;9.73;6.30;;;;;;;14.02;87.30;100389.03;338113;29;1723;-68
2022/10/03 00:38:27;;;;;;;9.68;6.43;;;;;;;14.04;87.39;100387.22;337932;29;1056;-68
2022/10/03 00:38:44;;;;;;;10.38;6.45;;;;;;;14.02;87.38;100394.25;336972;29;1170;-68
2022/10/03 00:39:08;;;;;;;10.88;6.47;;;;;;;14.04;87.34;100389.84;336971;29;1315;-68
2022/10/03 00:39:29;;;;;;;10.43;6.47;;;;;;;14.03;87.46;100393.38;336445;29;1300;-68
2022/10/03 00:40:14;;;;;;;9.80;6.82;;;;;;;13.93;87.52;100395.44;338645;28;1059;-68
2022/10/03 00:40:49;;;;;;;10.70;6.85;;;;;;;13.87;87.82;100390.44;334031;29;1339;-68
2022/10/03 00:41:19;;;;;;;11.35;6.60;;;;;;;13.96;87.95;100395.34;334289;29;1206;-68
2022/10/03 00:41:40;;;;;;;11.57;6.63;;;;;;;13.98;87.93;100393.53;341093;28;1070;-68
2022/10/03 00:42:20;;;;;;;10.70;6.70;;;;;;;14.04;87.74;100392.44;341081;28;1231;-68
2022/10/03 00:43:09;;;;;;;9.40;6.15;;;;;;;14.09;87.62;100395.75;340942;29;1026;-68
2022/10/03 00:43:42;;;;;;;13.93;7.03;;;;;;;14.01;87.48;100392.56;341781;28;1386;-68
2022/10/03 00:44:28;;;;;;;10.88;6.50;;;;;;;14.04;87.17;100394.22;342105;28;1058;-68
2022/10/03 00:44:58;;;;;;;10.70;6.38;;;;;;;13.98;87.37;100396.16;340646;29;1104;-68
2022/10/03 00:45:42;;;;;;;11.20;6.40;;;;;;;13.99;87.34;100397.84;340690;29;1043;-68
2022/10/03 00:46:27;;;;;;;11.68;6.32;;;;;;;14.05;87.47;100398.56;340626;29;1108;-68
2022/10/03 00:46:50;;;;;;;9.73;6.30;;;;;;;14.08;87.52;100399.28;340673;29;1192;-68
2022/10/03 00:47:28;;;;;;;9.98;6.25;;;;;;;14.10;87.34;100396.59;340970;28;1182;-68
2022/10/03 00:48:28;;;;;;;8.23;5.85;;;;;;;14.15;87.50;100392.09;341039;28;1042;-68
2022/10/03 00:48:53;;;;;;;9.23;6.50;;;;;;;14.07;87.03;100391.50;340887;28;1269;-68
2022/10/03 00:49:11;;;;;;;10.60;6.50;;;;;;;14.11;87.13;100393.09;341068;28;1197;-68
2022/10/03 00:49:57;;;;;;;10.60;6.55;;;;;;;14.13;86.88;100396.53;340894;28;1280;-68
2022/10/03 00:50:26;;;;;;;10.45;6.78;;;;;;;14.13;86.85;100391.28;340720;28;1068;-68
2022/10/03 00:50:44;;;;;;;9.65;6.10;;;;;;;14.14;86.91;100400.81;340971;28;1215;-68
2022/10/03 00:51:04;;;;;;;9.77;6.20;;;;;;;14.17;86.92;100392.88;340896;28;1121;-68
2022/10/03 00:51:41;;;;;;;8.75;5.90;;;;;;;14.19;86.99;100397.16;340981;28;1615;-68
2022/10/03 00:52:11;;;;;;;10.57;6.28;;;;;;;14.23;86.77;100397.91;342180;28;1059;-68
2022/10/03 00:52:29;;;;;;;10.13;6.40;;;;;;;14.24;87.07;100396.97;341693;28;1299;-68
2022/10/03 00:53:23;;;;;;;11.02;6.28;;;;;;;14.29;86.76;100397.69;342326;28;1068;-67
2022/10/03 00:54:02;;;;;;;10.15;6.75;;;;;;;14.25;86.33;100396.06;335329;29;1632;-68
2022/10/03 00:54:40;;;;;;;10.25;6.32;;;;;;;14.25;86.41;100390.84;335294;29;1201;-68
2022/10/03 00:55:04;;;;;;;9.52;6.60;;;;;;;14.20;86.27;100400.59;335659;29;1109;-68
2022/10/03 00:55:34;;;;;;;10.00;6.55;;;;;;;14.18;86.17;100397.19;334329;29;1075;-68
2022/10/03 00:56:15;;;;;;;10.18;6.65;;;;;;;14.19;86.54;100396.31;341904;28;1749;-68
2022/10/03 00:56:35;;;;;;;10.15;6.25;;;;;;;14.22;86.34;100400.56;341067;29;1193;-68
2022/10/03 00:57:15;;;;;;;10.40;6.30;;;;;;;14.15;86.42;100399.94;339514;29;1088;-68
2022/10/03 00:57:32;;;;;;;10.50;6.22;;;;;;;14.18;86.43;100399.81;340615;29;1304;-68
2022/10/03 00:58:21;;;;;;;11.00;6.30;;;;;;;14.12;86.40;100394.78;339603;29;1079;-68
2022/10/03 00:58:51;;;;;;;10.27;6.25;;;;;;;14.27;86.58;100399.50;334234;29;1312;-68
2022/10/03 00:59:30;;;;;;;9.13;6.25;;;;;;;14.21;86.26;100394.47;335463;29;1103;-68
2022/10/03 01:00:21;;;;;;;9.70;6.45;;;;;;;14.19;86.22;100398.91;338754;29;1168;-68
2022/10/03 01:00:34;;;;;;;11.07;6.38;;;;;;;14.21;86.18;100394.47;338150;29;1070;-68
2022/10/03 01:00:51;;;;;;;10.40;6.43;;;;;;;14.23;86.43;100397.91;338121;29;1174;-68
2022/10/03 01:01:21;;;;;;;9.10;6.45;;;;;;;14.25;86.35;100396.06;338271;29;1036;-68
2022/10/03 01:01:42;;;;;;;9.45;6.22;;;;;;;14.28;86.34;100400.34;341108;28;1067;-68
2022/10/03 01:01:55;;;;;;;10.20;6.45;;;;;;;14.28;86.26;100395.94;341872;28;1215;-68
2022/10/03 01:02:38;;;;;;;10.75;6.60;;;;;;;14.31;86.11;100398.47;342246;28;1325;-68
2022/10/03 01:03:05;;;;;;;10.43;6.53;;;;;;;14.35;85.99;100394.00;341604;28;1897;-68
2022/10/03 01:04:09;;;;;;;11.65;6.45;;;;;;;14.38;85.89;100393.88;342256;28;1216;-68
2022/10/03 01:04:52;;;;;;;11.02;6.70;;;;;;;14.11;85.83;100393.94;340559;29;1551;-68
2022/10/03 01:05:12;;;;;;;12.25;6.65;;;;;;;14.15;86.03;100395.53;340382;29;1297;-68
2022/10/03 01:05:36;;;;;;;11.60;6.70;;;;;;;14.15;86.32;100399.94;340275;29;1761;-68
2022/10/03 01:06:06;;;;;;;11.18;7.03;;;;;;;14.18;85.58;100394.56;342002;28;1079;-68
2022/10/03 01:06:33;;;;;;;12.35;6.53;;;;;;;14.19;85.90;100396.31;342238;28;1245;-68
2022/10/03 01:06:55;;;;;;;10.52;6.68;;;;;;;14.23;85.90;100387.44;342231;28;1699;-68
2022/10/03 01:07:18;;;;;;;10.15;6.60;;;;;;;14.24;86.07;100389.13;343284;28;1336;-68
2022/10/03 01:07:44;;;;;;;11.18;6.85;;;;;;;14.26;86.13;100387.31;343316;28;1022;-68
2022/10/03 01:08:14;;;;;;;11.43;6.43;;;;;;;14.24;86.01;100383.06;342132;28;1044;-68
2022/10/03 01:08:35;;;;;;;11.02;6.85;;;;;;;14.25;86.01;100379.53;342095;28;1060;-68
2022/10/03 01:08:56;;;;;;;11.85;6.72;;;;;;;14.26;86.03;100386.47;342122;28;1098;-68
2022/10/03 01:09:26;;;;;;;13.03;6.50;;;;;;;14.20;86.02;100392.75;342288;28;1049;-68
2022/10/03 01:09:49;;;;;;;9.23;6.20;;;;;;;14.15;86.11;100384.25;341953;28;1205;-68
2022/10/03 01:10:23;;;;;;;9.73;6.50;;;;;;;14.16;86.12;100386.78;342176;28;939;-68
2022/10/03 01:10:59;;;;;;;12.25;7.03;;;;;;;14.12;86.18;100389.56;342287;28;1103;-68
2022/10/03 01:11:59;;;;;;;11.40;7.10;;;;;;;14.07;86.27;100392.34;340999;28;1704;-68
2022/10/03 01:12:40;;;;;;;10.77;6.85;;;;;;;13.86;87.19;100383.47;336257;29;1976;-68
2022/10/03 01:13:04;;;;;;;11.32;6.38;;;;;;;13.93;87.42;100390.22;339131;29;1222;-68
2022/10/03 01:13:37;;;;;;;11.40;7.10;;;;;;;13.99;87.04;100395.22;341738;28;1377;-68
2022/10/03 01:14:11;;;;;;;10.95;6.75;;;;;;;13.95;87.03;100388.41;341047;28;1059;-68
2022/10/03 01:14:31;;;;;;;12.93;7.43;;;;;;;13.94;87.05;100391.06;342076;28;1843;-68
2022/10/03 01:15:04;;;;;;;11.20;7.05;;;;;;;13.88;87.17;100386.91;342442;28;1078;-68
2022/10/03 01:15:23;;;;;;;11.43;6.82;;;;;;;13.84;87.31;100389.69;342272;28;1933;-68
2022/10/03 01:16:04;;;;;;;12.05;6.90;;;;;;;13.66;88.13;100388.53;342264;28;970;-69
2022/10/03 01:16:26;;;;;;;12.57;6.80;;;;;;;13.62;88.27;100386.94;337858;29;1693;-69
2022/10/03 01:16:43;;;;;;;11.23;7.10;;;;;;;13.55;88.64;100389.75;337011;29;1232;-68
2022/10/03 01:17:23;;;;;;;13.20;7.07;;;;;;;13.63;88.62;100391.28;336912;29;1094;-68
2022/10/03 01:17:46;;;;;;;12.95;7.22;;;;;;;13.65;88.37;100387.69;337788;29;1114;-68
2022/10/03 01:18:19;;;;;;;12.23;7.40;;;;;;;13.70;88.32;100388.41;337896;29;1250;-68
2022/10/03 01:18:51;;;;;;;13.80;7.38;;;;;;;13.57;88.49;100387.94;341867;28;1827;-68
2022/10/03 01:19:47;;;;;;;14.73;7.75;;;;;;;13.68;88.66;100385.00;340911;28;1711;-68
2022/10/03 01:20:27;;;;;;;11.77;7.40;;;;;;;13.65;88.51;100386.84;341055;28;1188;-67
2022/10/03 01:20:48;;;;;;;16.43;8.30;;;;;;;13.58;88.72;100386.16;341263;28;1067;-68
2022/10/03 01:21:28;;;;;;;15.85;8.27;;;;;;;13.59;88.78;100386.13;340996;28;1271;-69
2022/10/03 01:22:00;;;;;;;14.15;7.93;;;;;;;13.59;88.78;100386.13;341804;28;1059;-68
2022/10/03 01:22:11;;;;;;;14.07;7.80;;;;;;;13.61;88.88;100382.63;340490;28;1787;-68
2022/10/03 01:22:55;;;;;;;12.23;7.55;;;;;;;13.66;88.83;100383.31;342286;28;1342;-68
2022/10/03 01:23:33;;;;;;;14.38;7.72;;;;;;;13.59;88.75;100386.13;340150;29;1055;-68
2022/10/03 01:24:24;;;;;;;14.80;8.57;;;;;;;13.53;88.93;100388.94;338156;29;1061;-68
2022/10/03 01:24:51;;;;;;;15.07;8.02;;;;;;;13.36;89.53;100388.63;340154;29;1759;-68
2022/10/03 01:25:26;;;;;;;16.08;8.30;;;;;;;13.35;89.90;100394.78;339858;29;1373;-68
2022/10/03 01:25:42;;;;;;;12.25;7.80;;;;;;;13.43;89.83;100389.31;341216;28;1068;-68
2022/10/03 01:26:13;;;;;;;13.75;8.10;;;;;;;13.43;89.62;100392.78;342310;28;1164;-68
2022/10/03 01:27:04;;;;;;;16.50;8.20;;;;;;;13.46;89.55;100392.69;342368;28;1619;-68
2022/10/03 01:27:32;;;;;;;16.17;8.05;;;;;;;13.48;89.72;100396.09;338677;29;1769;-68
2022/10/03 01:30:21;;;;;;;16.50;8.75;;;;;;;13.68;88.80;100402.41;341817;28;1697;-68
2022/10/03 01:30:39;;;;;;;18.17;8.27;;;;;;;13.53;88.99;100391.56;341897;28;1271;-68
2022/10/03 01:30:57;;;;;;;18.50;8.27;;;;;;;13.58;88.88;100397.50;342007;28;1846;-67
2022/10/03 01:31:15;;;;;;;13.35;7.80;;;;;;;13.63;88.97;100393.88;340989;28;1061;-68
2022/10/03 01:31:37;;;;;;;13.85;8.20;;;;;;;13.65;88.60;100394.69;341207;28;1502;-68
2022/10/03 01:31:58;;;;;;;13.43;8.25;;;;;;;13.62;88.54;100398.22;340918;28;1165;-70
2022/10/03 01:32:25;;;;;;;13.65;8.10;;;;;;;13.57;88.81;100398.38;340847;28;1420;-68
2022/10/03 01:33:17;;;;;;;16.23;8.30;;;;;;;13.56;88.84;100396.69;342274;28;1047;-68
2022/10/03 01:33:45;;;;;;;14.07;8.00;;;;;;;13.56;88.70;100401.94;334900;29;1715;-68
2022/10/03 01:34:09;;;;;;;15.57;8.18;;;;;;;13.48;88.93;100403.06;342608;28;1181;-68
2022/10/03 01:34:34;;;;;;;14.32;8.27;;;;;;;13.47;89.09;100399.59;341732;28;2103;-68
2022/10/03 01:35:05;;;;;;;13.60;8.15;;;;;;;13.47;89.15;100399.59;342344;28;1008;-68
2022/10/03 01:35:34;;;;;;;15.20;7.90;;;;;;;13.52;89.51;100402.94;341396;28;1101;-68
2022/10/03 01:36:02;;;;;;;14.25;8.10;;;;;;;13.52;89.04;100405.53;340674;28;1266;-68
2022/10/03 01:36:28;;;;;;;14.48;7.65;;;;;;;13.48;89.17;100403.94;341142;28;1640;-68
2022/10/03 01:36:51;;;;;;;15.32;8.40;;;;;;;13.53;89.06;100401.16;340865;28;1340;-68
2022/10/03 01:37:10;;;;;;;13.18;7.95;;;;;;;13.51;89.24;100403.81;340875;28;1742;-68
2022/10/03 01:37:36;;;;;;;15.35;8.25;;;;;;;13.48;89.26;100403.06;341975;28;1891;-68
2022/10/03 01:38:08;;;;;;;15.57;7.97;;;;;;;13.40;89.39;100398.09;340970;28;1140;-68
2022/10/03 01:38:43;;;;;;;13.30;7.88;;;;;;;13.46;89.43;100397.91;341710;28;2331;-68
2022/10/03 01:39:23;;;;;;;14.25;8.07;;;;;;;13.38;89.48;100403.38;342813;28;851;-68
2022/10/03 01:40:00;;;;;;;13.35;7.63;;;;;;;13.38;89.58;100405.97;337143;29;1273;-68
2022/10/03 01:40:11;;;;;;;13.60;7.50;;;;;;;13.38;89.70;100402.50;342333;28;1116;-68
2022/10/03 01:40:53;;;;;;;13.05;7.40;;;;;;;13.23;89.90;100395.13;342703;28;1188;-68
2022/10/03 01:41:31;;;;;;;13.48;7.70;;;;;;;13.27;90.52;100400.19;341082;28;1662;-68
2022/10/03 01:41:48;;;;;;;11.95;7.65;;;;;;;13.41;90.42;100402.41;341197;28;1132;-68
2022/10/03 01:42:18;;;;;;;12.15;7.45;;;;;;;13.39;90.24;100399.00;341179;28;1295;-68
2022/10/03 01:43:00;;;;;;;14.95;7.60;;;;;;;13.44;90.04;100407.53;341141;28;1016;-68
2022/10/03 01:43:19;;;;;;;12.95;7.57;;;;;;;13.49;89.59;100400.41;341422;28;1844;-68
2022/10/03 01:43:41;;;;;;;12.20;7.35;;;;;;;13.54;89.66;100403.72;342480;28;1896;-68
2022/10/03 01:44:01;;;;;;;12.02;7.15;;;;;;;13.55;89.35;100410.66;341120;28;1326;-68
2022/10/03 01:44:26;;;;;;;12.15;7.53;;;;;;;13.58;89.29;100415.78;342449;28;1641;-68
2022/10/03 01:44:51;;;;;;;11.55;7.20;;;;;;;13.54;89.14;100414.19;341194;28;1075;-68
2022/10/03 01:45:25;;;;;;;12.60;7.03;;;;;;;13.41;89.46;100410.25;341734;28;1882;-68
2022/10/03 01:45:36;;;;;;;11.68;7.25;;;;;;;13.44;89.57;100407.53;342160;28;1008;-68
2022/10/03 01:46:02;;;;;;;12.20;7.53;;;;;;;13.47;89.65;100412.66;342632;28;1183;-68
2022/10/03 01:46:38;;;;;;;11.13;7.28;;;;;;;13.43;89.68;100420.66;341552;28;1823;-68
2022/10/03 01:46:56;;;;;;;12.70;7.82;;;;;;;13.43;89.69;100418.88;341208;28;1460;-68
2022/10/03 01:47:23;;;;;;;11.63;7.60;;;;;;;13.49;89.65;100421.28;341219;28;1130;-68
2022/10/03 01:47:56;;;;;;;11.85;7.53;;;;;;;13.53;89.70;100420.28;342372;28;1092;-68
2022/10/03 01:48:49;;;;;;;12.32;7.60;;;;;;;13.53;89.39;100422.91;342596;28;1187;-68
2022/10/03 01:49:18;;;;;;;11.52;7.32;;;;;;;13.57;89.54;100419.28;342503;28;1291;-68
2022/10/03 01:49:45;;;;;;;11.82;7.57;;;;;;;13.48;89.43;100419.59;341850;28;1714;-68
2022/10/03 01:50:18;;;;;;;12.88;7.38;;;;;;;13.52;89.51;100420.34;342374;28;1248;-68
2022/10/03 01:50:37;;;;;;;12.02;7.50;;;;;;;13.50;89.57;100420.41;341938;28;1722;-68
2022/10/03 01:51:12;;;;;;;13.48;8.00;;;;;;;13.51;89.77;100422.09;342558;28;1010;-68
2022/10/03 01:51:59;;;;;;;13.80;7.90;;;;;;;13.51;89.66;100419.50;337964;29;1395;-68
2022/10/03 01:52:10;;;;;;;13.45;7.60;;;;;;;13.54;89.65;100423.75;342508;28;1332;-68
2022/10/03 01:52:47;;;;;;;13.77;7.80;;;;;;;13.59;89.49;100417.47;341845;28;1502;-68
2022/10/03 01:53:13;;;;;;;11.07;7.10;;;;;;;13.57;89.22;100424.50;340988;28;1060;-68
2022/10/03 01:53:40;;;;;;;13.38;7.85;;;;;;;13.44;89.61;100425.84;342214;28;1494;-68
2022/10/03 01:54:12;;;;;;;16.08;8.27;;;;;;;13.44;89.98;100423.22;342231;28;1850;-68
2022/10/03 01:54:28;;;;;;;12.68;7.65;;;;;;;13.35;90.00;100415.66;342061;28;1260;-68
2022/10/03 01:54:56;;;;;;;13.90;7.55;;;;;;;13.35;90.26;100415.66;343125;28;1966;-68
2022/10/03 01:55:29;;;;;;;11.57;7.40;;;;;;;13.43;90.15;100416.28;342762;28;2058;-68
2022/10/03 01:55:47;;;;;;;12.63;7.22;;;;;;;13.49;90.14;100417.84;341156;29;1652;-68
2022/10/03 01:56:24;;;;;;;12.30;7.70;;;;;;;13.36;90.06;100415.63;340923;29;1071;-68
2022/10/03 01:56:40;;;;;;;13.93;8.05;;;;;;;13.43;90.03;100416.28;341465;28;1579;-68
2022/10/03 01:56:58;;;;;;;15.40;8.27;;;;;;;13.44;90.29;100415.38;342273;28;1080;-68
2022/10/03 01:57:20;;;;;;;14.43;8.13;;;;;;;13.41;90.00;100418.06;340880;29;1221;-68
2022/10/03 01:57:41;;;;;;;12.57;7.80;;;;;;;13.43;89.96;100421.50;342232;28;1573;-69
2022/10/03 01:58:04;;;;;;;12.27;7.35;;;;;;;13.39;89.84;100414.66;341130;29;1035;-69
2022/10/03 01:58:26;;;;;;;15.13;7.95;;;;;;;13.44;89.94;100417.13;341320;28;1616;-68
2022/10/03 01:58:55;;;;;;;13.75;7.60;;;;;;;13.33;90.01;100414.88;340778;29;1018;-68
2022/10/03 01:59:18;;;;;;;16.73;8.40;;;;;;;13.27;90.38;100420.25;341243;28;2096;-68
2022/10/03 01:59:58;;;;;;;14.55;7.82;;;;;;;13.25;90.54;100419.44;340894;28;1060;-68
2022/10/03 02:00:14;;;;;;;14.55;8.45;;;;;;;13.31;90.45;100422.72;342846;28;1522;-68
2022/10/03 02:00:40;;;;;;;13.15;8.32;;;;;;;13.35;90.46;100424.34;342508;28;1168;-68
2022/10/03 02:01:06;;;;;;;14.25;8.27;;;;;;;13.33;90.28;100425.31;342472;28;1218;-68
2022/10/03 02:01:35;;;;;;;13.88;8.23;;;;;;;13.32;90.37;100419.22;342362;28;1669;-68
2022/10/03 02:02:08;;;;;;;14.85;7.97;;;;;;;13.25;90.56;100420.28;343081;28;1124;-67
2022/10/03 02:02:31;;;;;;;15.75;8.25;;;;;;;13.22;90.45;100416.91;341819;28;1644;-68
2022/10/03 02:02:48;;;;;;;12.00;7.78;;;;;;;13.19;90.75;100423.94;341939;28;1429;-68
2022/10/03 02:03:06;;;;;;;11.90;8.02;;;;;;;13.19;90.79;100423.09;341565;28;1665;-68
2022/10/03 02:03:34;;;;;;;14.52;8.48;;;;;;;13.22;90.80;100422.13;341896;28;1663;-68
2022/10/03 02:04:03;;;;;;;13.50;7.95;;;;;;;13.24;90.89;100421.19;341356;28;1127;-68
2022/10/03 02:04:28;;;;;;;14.77;8.10;;;;;;;13.19;91.01;100418.72;340973;28;1893;-68
2022/10/03 02:05:02;;;;;;;14.07;8.15;;;;;;;13.21;90.83;100431.72;342396;28;1407;-68
2022/10/03 02:05:37;;;;;;;15.48;8.20;;;;;;;13.17;90.95;100425.75;342143;28;1615;-68
2022/10/03 02:06:17;;;;;;;14.40;8.32;;;;;;;13.23;90.68;100418.63;341387;28;1042;-68
2022/10/03 02:06:39;;;;;;;13.93;8.15;;;;;;;13.17;90.94;100420.53;342143;28;1601;-69
2022/10/03 02:07:01;;;;;;;13.38;8.35;;;;;;;13.18;90.68;100422.25;341199;28;1152;-68
2022/10/03 02:07:39;;;;;;;13.32;8.63;;;;;;;13.17;90.71;100420.53;341435;28;3357;-68
2022/10/03 02:07:51;;;;;;;14.70;8.50;;;;;;;13.22;90.53;100419.53;341191;28;1087;-68
2022/10/03 02:08:22;;;;;;;13.88;8.20;;;;;;;13.23;90.38;100421.25;341182;28;2170;-68
2022/10/03 02:09:08;;;;;;;14.20;8.50;;;;;;;13.23;90.56;100422.09;341229;28;1099;-68
2022/10/03 02:09:43;;;;;;;14.88;8.63;;;;;;;13.19;90.68;100423.09;341722;28;1161;-68
2022/10/03 02:10:19;;;;;;;15.35;8.52;;;;;;;13.16;90.75;100424.06;341044;28;1073;-68
2022/10/03 02:10:44;;;;;;;14.57;7.90;;;;;;;13.08;91.48;100419.94;341507;28;1548;-68
2022/10/03 02:11:08;;;;;;;16.02;8.32;;;;;;;13.08;91.24;100425.16;342334;28;1835;-69
2022/10/03 02:11:30;;;;;;;14.90;8.45;;;;;;;13.08;91.24;100420.81;342053;28;1690;-68
2022/10/03 02:11:49;;;;;;;13.13;7.63;;;;;;;13.08;91.12;100427.78;341192;28;1628;-68
2022/10/03 02:12:08;;;;;;;13.63;8.15;;;;;;;13.08;91.27;100428.66;341191;28;1055;-68
2022/10/03 02:12:33;;;;;;;13.48;8.57;;;;;;;13.09;91.12;100427.72;341045;28;1858;-68
2022/10/03 02:13:06;;;;;;;14.10;8.15;;;;;;;13.05;91.26;100431.34;340985;29;1131;-68
2022/10/03 02:13:27;;;;;;;12.88;8.10;;;;;;;13.03;91.55;100425.31;340659;28;2048;-68
2022/10/03 02:14:14;;;;;;;13.48;8.65;;;;;;;13.07;91.51;100433.91;341010;29;1167;-68
2022/10/03 02:15:15;;;;;;;13.65;8.43;;;;;;;13.06;91.15;100427.84;341148;28;1266;-68
2022/10/03 02:15:31;;;;;;;12.77;8.00;;;;;;;13.02;91.43;100428.84;339436;29;1151;-68
2022/10/03 02:15:49;;;;;;;14.68;8.65;;;;;;;13.08;91.53;100431.25;339462;29;1301;-68
2022/10/03 02:16:09;;;;;;;15.57;8.23;;;;;;;13.08;91.36;100431.25;339310;29;1174;-68
2022/10/03 02:16:37;;;;;;;14.95;8.27;;;;;;;13.04;91.38;100421.81;340390;29;1826;-68
2022/10/03 02:16:58;;;;;;;14.80;8.10;;;;;;;12.92;91.44;100427.41;339916;29;2064;-68
2022/10/03 02:17:22;;;;;;;14.20;8.20;;;;;;;12.92;91.71;100427.41;340896;29;1073;-68
2022/10/03 02:17:46;;;;;;;15.27;8.27;;;;;;;12.98;91.70;100424.63;341650;28;1661;-68
2022/10/03 02:18:35;;;;;;;16.20;8.40;;;;;;;12.98;91.47;100424.63;342512;28;1188;-68
2022/10/03 02:19:05;;;;;;;12.77;7.70;;;;;;;13.03;91.42;100422.69;337776;28;1675;-68
2022/10/03 02:19:29;;;;;;;13.18;8.05;;;;;;;13.07;91.17;100428.69;341265;28;1774;-68
2022/10/03 02:19:47;;;;;;;12.63;8.13;;;;;;;13.05;90.84;100422.66;341471;28;1038;-68
2022/10/03 02:20:17;;;;;;;14.23;8.15;;;;;;;12.96;91.14;100426.41;341269;28;1289;-68
2022/10/03 02:20:40;;;;;;;15.93;8.05;;;;;;;12.99;91.46;100427.16;341863;28;1405;-68
2022/10/03 02:21:15;;;;;;;15.95;7.97;;;;;;;13.05;91.24;100426.13;343502;28;1027;-68
2022/10/03 02:21:32;;;;;;;13.55;7.28;;;;;;;13.03;91.11;100427.06;343252;28;1559;-68